createdAt,value
2017-01-23T00:00:43.879Z,1020.62
2017-01-23T00:01:25.536Z,1020.62
2017-01-23T00:02:07.399Z,1020.59
2017-01-23T00:02:49.052Z,1020.61
2017-01-23T00:03:30.709Z,1020.62
2017-01-23T00:04:12.337Z,1020.6
2017-01-23T00:04:54.044Z,1020.63
2017-01-23T00:05:35.710Z,1020.6
2017-01-23T00:06:17.443Z,1020.62
2017-01-23T00:06:59.162Z,1020.61
2017-01-23T00:09:19.865Z,1020.63
2017-01-23T00:11:50.870Z,1020.62
2017-01-23T00:12:32.653Z,1020.62
2017-01-23T00:13:14.391Z,1020.64
2017-01-23T00:13:56.156Z,1020.68
2017-01-23T00:14:37.865Z,1020.67
2017-01-23T00:15:19.597Z,1020.63
2017-01-23T00:16:01.325Z,1020.64
2017-01-23T00:16:43.078Z,1020.64
2017-01-23T00:17:24.820Z,1020.65
2017-01-23T00:18:06.586Z,1020.66
2017-01-23T00:18:48.345Z,1020.68
2017-01-23T00:19:29.970Z,1020.63
2017-01-23T00:20:11.658Z,1020.67
2017-01-23T00:20:53.308Z,1020.7
2017-01-23T00:21:35.060Z,1020.67
2017-01-23T00:22:16.689Z,1020.68
2017-01-23T00:22:58.412Z,1020.68
2017-01-23T00:23:40.097Z,1020.72
2017-01-23T00:25:34.816Z,1020.72
2017-01-23T00:26:16.530Z,1020.73
2017-01-23T00:28:11.289Z,1020.73
2017-01-23T00:28:53.059Z,1020.7
2017-01-23T00:29:34.653Z,1020.69
2017-01-23T00:30:16.385Z,1020.7
2017-01-23T00:30:58.009Z,1020.71
2017-01-23T00:31:39.566Z,1020.73
2017-01-23T00:32:21.317Z,1020.75
2017-01-23T00:33:03.026Z,1020.75
2017-01-23T00:33:44.718Z,1020.75
2017-01-23T00:34:26.494Z,1020.78
2017-01-23T00:35:08.046Z,1020.78
2017-01-23T00:35:49.778Z,1020.75
2017-01-23T00:36:31.506Z,1020.76
2017-01-23T00:38:26.073Z,1020.77
2017-01-23T00:39:07.800Z,1020.8
2017-01-23T00:39:49.553Z,1020.76
2017-01-23T00:40:31.345Z,1020.78
2017-01-23T00:41:12.996Z,1020.78
2017-01-23T00:41:54.780Z,1020.78
2017-01-23T00:42:36.468Z,1020.8
2017-01-23T00:43:18.101Z,1020.74
2017-01-23T00:43:59.813Z,1020.75
2017-01-23T00:44:41.613Z,1020.75
2017-01-23T00:45:23.184Z,1020.72
2017-01-23T00:46:04.958Z,1020.74
2017-01-23T00:46:46.725Z,1020.75
2017-01-23T00:47:28.417Z,1020.77
2017-01-23T00:48:10.178Z,1020.75
2017-01-23T00:48:51.928Z,1020.77
2017-01-23T00:51:12.576Z,1020.75
2017-01-23T00:51:54.298Z,1020.82
2017-01-23T00:52:35.861Z,1020.81
2017-01-23T00:53:17.642Z,1020.79
2017-01-23T00:53:59.378Z,1020.82
2017-01-23T00:54:41.115Z,1020.77
2017-01-23T00:55:22.898Z,1020.76
2017-01-23T00:56:04.580Z,1020.82
2017-01-23T00:56:46.298Z,1020.81
2017-01-23T00:57:27.755Z,1020.81
2017-01-23T00:58:09.296Z,1020.79
2017-01-23T01:01:53.021Z,1020.83
2017-01-23T01:02:34.665Z,1020.82
2017-01-23T01:03:16.227Z,1020.83
2017-01-23T01:03:57.778Z,1020.83
2017-01-23T01:04:39.497Z,1020.81
2017-01-23T01:06:39.243Z,1020.82
2017-01-23T01:07:20.472Z,1020.8
2017-01-23T01:08:02.303Z,1020.81
2017-01-23T01:08:43.998Z,1020.82
2017-01-23T01:09:25.769Z,1020.85
2017-01-23T01:10:07.477Z,1020.84
2017-01-23T01:12:28.265Z,1020.93
2017-01-23T01:14:59.427Z,1020.9
2017-01-23T01:15:41.182Z,1020.93
2017-01-23T01:17:56.589Z,1020.92
2017-01-23T01:20:12.037Z,1020.89
2017-01-23T01:22:27.457Z,1020.85
2017-01-23T01:26:37.438Z,1020.85
2017-01-23T01:27:19.132Z,1020.81
2017-01-23T01:28:00.856Z,1020.81
2017-01-23T01:28:42.654Z,1020.8
2017-01-23T01:29:24.417Z,1020.8
2017-01-23T01:31:45.177Z,1020.85
2017-01-23T01:33:39.858Z,1020.8
2017-01-23T01:34:21.556Z,1020.77
2017-01-23T01:36:16.358Z,1020.76
2017-01-23T01:36:58.153Z,1020.76
2017-01-23T01:37:39.895Z,1020.76
2017-01-23T01:38:21.698Z,1020.76
2017-01-23T01:39:03.426Z,1020.8
2017-01-23T01:39:45.122Z,1020.77
2017-01-23T01:40:26.830Z,1020.77
2017-01-23T01:41:08.552Z,1020.74
2017-01-23T01:41:50.355Z,1020.75
2017-01-23T01:42:32.113Z,1020.75
2017-01-23T01:43:13.551Z,1020.8
2017-01-23T01:43:55.334Z,1020.78
2017-01-23T01:44:37.043Z,1020.78
2017-01-23T01:45:18.833Z,1020.77
2017-01-23T01:46:00.584Z,1020.79
2017-01-23T01:46:42.299Z,1020.77
2017-01-23T01:47:23.980Z,1020.73
2017-01-23T01:51:13.281Z,1020.67
2017-01-23T01:51:54.460Z,1020.69
2017-01-23T01:52:35.643Z,1020.68
2017-01-23T01:55:06.645Z,1020.64
2017-01-23T01:55:48.327Z,1020.6
2017-01-23T01:56:29.965Z,1020.58
2017-01-23T01:58:30.000Z,1020.57
2017-01-23T01:59:11.660Z,1020.6
2017-01-23T01:59:52.883Z,1020.56
2017-01-23T02:00:33.405Z,1020.55
2017-01-23T02:01:13.934Z,1020.59
2017-01-23T02:01:54.485Z,1020.55
2017-01-23T02:02:34.984Z,1020.57
2017-01-23T02:03:15.503Z,1020.53
2017-01-23T02:03:56.027Z,1020.57
2017-01-23T02:04:36.555Z,1020.61
2017-01-23T02:05:17.082Z,1020.56
2017-01-23T02:05:57.606Z,1020.6
2017-01-23T02:06:38.129Z,1020.62
2017-01-23T02:07:18.653Z,1020.63
2017-01-23T02:07:59.176Z,1020.63
2017-01-23T02:08:39.771Z,1020.64
2017-01-23T02:09:20.299Z,1020.59
2017-01-23T02:10:00.825Z,1020.59
2017-01-23T02:10:41.344Z,1020.58
2017-01-23T02:11:21.868Z,1020.59
2017-01-23T02:12:02.394Z,1020.59
2017-01-23T02:12:42.916Z,1020.6
2017-01-23T02:13:23.444Z,1020.59
2017-01-23T02:14:03.955Z,1020.58
2017-01-23T02:14:44.487Z,1020.56
2017-01-23T02:15:25.009Z,1020.53
2017-01-23T02:16:05.534Z,1020.5
2017-01-23T02:16:46.059Z,1020.51
2017-01-23T02:17:26.585Z,1020.51
2017-01-23T02:18:07.108Z,1020.51
2017-01-23T02:18:47.633Z,1020.53
2017-01-23T02:19:28.158Z,1020.49
2017-01-23T02:20:08.684Z,1020.52
2017-01-23T02:20:49.207Z,1020.5
2017-01-23T02:21:29.726Z,1020.49
2017-01-23T02:22:10.286Z,1020.48
2017-01-23T02:22:50.824Z,1020.46
2017-01-23T02:23:31.361Z,1020.48
2017-01-23T02:24:11.882Z,1020.49
2017-01-23T02:24:52.409Z,1020.47
2017-01-23T02:25:32.932Z,1020.49
2017-01-23T02:26:13.458Z,1020.49
2017-01-23T02:26:53.987Z,1020.47
2017-01-23T02:27:34.515Z,1020.52
2017-01-23T02:28:15.047Z,1020.49
2017-01-23T02:28:55.597Z,1020.5
2017-01-23T02:29:36.107Z,1020.5
2017-01-23T02:30:16.638Z,1020.47
2017-01-23T02:30:57.160Z,1020.5
2017-01-23T02:31:37.686Z,1020.49
2017-01-23T02:32:18.210Z,1020.5
2017-01-23T02:32:58.740Z,1020.48
2017-01-23T02:33:39.261Z,1020.48
2017-01-23T02:34:19.787Z,1020.46
2017-01-23T02:35:00.312Z,1020.44
2017-01-23T02:35:40.841Z,1020.45
2017-01-23T02:36:21.350Z,1020.43
2017-01-23T02:37:01.876Z,1020.44
2017-01-23T02:37:42.405Z,1020.41
2017-01-23T02:38:22.923Z,1020.41
2017-01-23T02:39:03.444Z,1020.42
2017-01-23T02:39:43.969Z,1020.42
2017-01-23T02:40:24.497Z,1020.44
2017-01-23T02:41:05.029Z,1020.47
2017-01-23T02:41:45.557Z,1020.41
2017-01-23T02:42:26.081Z,1020.4
2017-01-23T02:43:06.612Z,1020.39
2017-01-23T02:43:47.142Z,1020.4
2017-01-23T02:44:27.665Z,1020.36
2017-01-23T02:45:08.180Z,1020.38
2017-01-23T02:45:48.713Z,1020.39
2017-01-23T02:46:29.241Z,1020.4
2017-01-23T02:47:09.767Z,1020.38
2017-01-23T02:47:50.290Z,1020.39
2017-01-23T02:48:30.819Z,1020.41
2017-01-23T02:49:11.335Z,1020.42
2017-01-23T02:49:51.857Z,1020.37
2017-01-23T02:50:32.388Z,1020.37
2017-01-23T02:51:12.918Z,1020.35
2017-01-23T02:51:53.452Z,1020.37
2017-01-23T02:52:33.972Z,1020.34
2017-01-23T02:53:14.497Z,1020.35
2017-01-23T02:53:55.025Z,1020.37
2017-01-23T02:54:35.555Z,1020.37
2017-01-23T02:55:16.079Z,1020.37
2017-01-23T02:55:56.596Z,1020.37
2017-01-23T02:56:37.126Z,1020.41
2017-01-23T02:57:17.651Z,1020.38
2017-01-23T02:57:58.177Z,1020.38
2017-01-23T02:58:38.710Z,1020.39
2017-01-23T02:59:19.230Z,1020.4
2017-01-23T02:59:59.746Z,1020.36
2017-01-23T03:00:40.273Z,1020.39
2017-01-23T03:01:20.825Z,1020.42
2017-01-23T03:02:01.320Z,1020.43
2017-01-23T03:02:41.835Z,1020.43
2017-01-23T03:03:22.372Z,1020.44
2017-01-23T03:04:02.887Z,1020.44
2017-01-23T03:04:43.417Z,1020.43
2017-01-23T03:05:23.944Z,1020.44
2017-01-23T03:06:04.486Z,1020.44
2017-01-23T03:06:45.011Z,1020.43
2017-01-23T03:07:25.535Z,1020.44
2017-01-23T03:08:06.067Z,1020.42
2017-01-23T03:08:46.621Z,1020.41
2017-01-23T03:09:27.117Z,1020.39
2017-01-23T03:10:07.645Z,1020.4
2017-01-23T03:10:48.176Z,1020.38
2017-01-23T03:11:28.711Z,1020.39
2017-01-23T03:12:09.235Z,1020.38
2017-01-23T03:12:49.765Z,1020.37
2017-01-23T03:13:30.294Z,1020.39
2017-01-23T03:14:10.831Z,1020.38
2017-01-23T03:14:51.358Z,1020.35
2017-01-23T03:15:31.877Z,1020.36
2017-01-23T03:16:12.402Z,1020.38
2017-01-23T03:16:52.930Z,1020.37
2017-01-23T03:17:33.460Z,1020.38
2017-01-23T03:18:13.999Z,1020.4
2017-01-23T03:18:54.521Z,1020.4
2017-01-23T03:19:35.047Z,1020.41
2017-01-23T03:20:15.576Z,1020.42
2017-01-23T03:20:56.100Z,1020.47
2017-01-23T03:21:36.622Z,1020.46
2017-01-23T03:22:17.149Z,1020.46
2017-01-23T03:22:57.683Z,1020.49
2017-01-23T03:23:38.210Z,1020.46
2017-01-23T03:24:18.735Z,1020.49
2017-01-23T03:24:59.263Z,1020.48
2017-01-23T03:25:39.789Z,1020.5
2017-01-23T03:26:20.314Z,1020.47
2017-01-23T03:27:00.840Z,1020.47
2017-01-23T03:27:41.366Z,1020.48
2017-01-23T03:28:21.893Z,1020.47
2017-01-23T03:29:02.423Z,1020.49
2017-01-23T03:29:42.944Z,1020.49
2017-01-23T03:30:23.468Z,1020.47
2017-01-23T03:31:03.995Z,1020.51
2017-01-23T03:31:44.525Z,1020.49
2017-01-23T03:32:25.040Z,1020.49
2017-01-23T03:33:05.565Z,1020.51
2017-01-23T03:33:46.092Z,1020.52
2017-01-23T03:34:26.622Z,1020.53
2017-01-23T03:35:07.148Z,1020.51
2017-01-23T03:35:47.670Z,1020.49
2017-01-23T03:36:28.199Z,1020.49
2017-01-23T03:37:08.726Z,1020.48
2017-01-23T03:37:49.261Z,1020.48
2017-01-23T03:38:29.783Z,1020.46
2017-01-23T03:39:10.309Z,1020.44
2017-01-23T03:39:50.841Z,1020.43
2017-01-23T03:40:31.370Z,1020.44
2017-01-23T03:41:11.885Z,1020.42
2017-01-23T03:41:52.418Z,1020.38
2017-01-23T03:42:32.946Z,1020.36
2017-01-23T03:43:13.471Z,1020.39
2017-01-23T03:43:53.992Z,1020.44
2017-01-23T03:44:34.521Z,1020.43
2017-01-23T03:45:15.050Z,1020.42
2017-01-23T03:45:55.583Z,1020.39
2017-01-23T03:46:36.104Z,1020.39
2017-01-23T03:47:16.626Z,1020.37
2017-01-23T03:47:57.150Z,1020.37
2017-01-23T03:48:37.676Z,1020.41
2017-01-23T03:49:18.203Z,1020.41
2017-01-23T03:49:58.725Z,1020.41
2017-01-23T03:50:39.255Z,1020.44
2017-01-23T03:51:19.779Z,1020.44
2017-01-23T03:52:00.308Z,1020.41
2017-01-23T03:52:40.821Z,1020.4
2017-01-23T03:53:21.347Z,1020.38
2017-01-23T03:54:01.877Z,1020.41
2017-01-23T03:54:42.401Z,1020.39
2017-01-23T03:55:22.927Z,1020.41
2017-01-23T03:56:03.455Z,1020.4
2017-01-23T03:56:43.969Z,1020.39
2017-01-23T03:57:24.500Z,1020.4
2017-01-23T03:58:05.022Z,1020.4
2017-01-23T03:58:45.550Z,1020.35
2017-01-23T03:59:26.064Z,1020.36
2017-01-23T04:00:06.591Z,1020.34
2017-01-23T04:00:47.225Z,1020.37
2017-01-23T04:01:27.746Z,1020.37
2017-01-23T04:02:08.263Z,1020.37
2017-01-23T04:02:48.868Z,1020.34
2017-01-23T04:03:29.588Z,1020.32
2017-01-23T04:04:10.104Z,1020.34
2017-01-23T04:04:50.636Z,1020.31
2017-01-23T04:05:31.164Z,1020.31
2017-01-23T04:06:11.689Z,1020.3
2017-01-23T04:06:52.205Z,1020.27
2017-01-23T04:07:32.730Z,1020.3
2017-01-23T04:08:13.263Z,1020.33
2017-01-23T04:08:53.799Z,1020.3
2017-01-23T04:09:34.324Z,1020.3
2017-01-23T04:10:14.852Z,1020.27
2017-01-23T04:10:55.377Z,1020.3
2017-01-23T04:11:35.904Z,1020.29
2017-01-23T04:12:16.421Z,1020.27
2017-01-23T04:12:56.945Z,1020.29
2017-01-23T04:13:37.470Z,1020.3
2017-01-23T04:14:18.013Z,1020.28
2017-01-23T04:14:58.541Z,1020.27
2017-01-23T04:15:39.062Z,1020.27
2017-01-23T04:16:19.586Z,1020.28
2017-01-23T04:17:00.117Z,1020.31
2017-01-23T04:17:40.647Z,1020.29
2017-01-23T04:18:21.198Z,1020.33
2017-01-23T04:19:01.722Z,1020.37
2017-01-23T04:19:42.244Z,1020.36
2017-01-23T04:20:22.772Z,1020.33
2017-01-23T04:21:03.297Z,1020.37
2017-01-23T04:21:43.817Z,1020.4
2017-01-23T04:22:24.345Z,1020.39
2017-01-23T04:23:04.868Z,1020.46
2017-01-23T04:23:45.398Z,1020.46
2017-01-23T04:24:25.921Z,1020.42
2017-01-23T04:25:06.445Z,1020.48
2017-01-23T04:25:46.971Z,1020.49
2017-01-23T04:26:27.499Z,1020.48
2017-01-23T04:27:08.027Z,1020.5
2017-01-23T04:27:48.541Z,1020.51
2017-01-23T04:28:29.071Z,1020.51
2017-01-23T04:29:09.603Z,1020.5
2017-01-23T04:29:50.127Z,1020.5
2017-01-23T04:30:30.654Z,1020.5
2017-01-23T04:31:11.181Z,1020.43
2017-01-23T04:31:51.707Z,1020.48
2017-01-23T04:32:32.225Z,1020.48
2017-01-23T04:33:12.755Z,1020.46
2017-01-23T04:33:53.278Z,1020.42
2017-01-23T04:34:33.806Z,1020.45
2017-01-23T04:35:14.332Z,1020.47
2017-01-23T04:35:54.859Z,1020.43
2017-01-23T04:36:35.423Z,1020.47
2017-01-23T04:37:15.944Z,1020.4
2017-01-23T04:37:56.473Z,1020.48
2017-01-23T04:38:37.056Z,1020.46
2017-01-23T04:39:17.586Z,1020.44
2017-01-23T04:39:58.107Z,1020.48
2017-01-23T04:40:38.621Z,1020.46
2017-01-23T04:41:19.150Z,1020.46
2017-01-23T04:41:59.677Z,1020.44
2017-01-23T04:42:40.220Z,1020.47
2017-01-23T04:43:20.747Z,1020.45
2017-01-23T04:44:01.283Z,1020.46
2017-01-23T04:44:41.804Z,1020.42
2017-01-23T04:45:22.331Z,1020.43
2017-01-23T04:46:02.865Z,1020.44
2017-01-23T04:46:43.389Z,1020.45
2017-01-23T04:47:23.925Z,1020.44
2017-01-23T04:48:04.460Z,1020.41
2017-01-23T04:48:45.010Z,1020.44
2017-01-23T04:49:25.542Z,1020.46
2017-01-23T04:50:06.070Z,1020.45
2017-01-23T04:50:46.586Z,1020.45
2017-01-23T04:51:27.130Z,1020.46
2017-01-23T04:52:07.648Z,1020.46
2017-01-23T04:52:48.175Z,1020.45
2017-01-23T04:53:28.707Z,1020.41
2017-01-23T04:54:09.229Z,1020.47
2017-01-23T04:54:49.762Z,1020.43
2017-01-23T04:55:30.289Z,1020.45
2017-01-23T04:56:10.818Z,1020.47
2017-01-23T04:56:51.346Z,1020.48
2017-01-23T04:57:31.872Z,1020.49
2017-01-23T04:58:12.409Z,1020.46
2017-01-23T04:58:52.940Z,1020.46
2017-01-23T04:59:33.470Z,1020.48
2017-01-23T05:00:13.997Z,1020.49
2017-01-23T05:00:54.522Z,1020.5
2017-01-23T05:01:35.053Z,1020.47
2017-01-23T05:02:15.581Z,1020.5
2017-01-23T05:02:56.106Z,1020.51
2017-01-23T05:03:36.637Z,1020.49
2017-01-23T05:04:17.165Z,1020.54
2017-01-23T05:04:57.736Z,1020.49
2017-01-23T05:05:38.262Z,1020.5
2017-01-23T05:06:18.797Z,1020.52
2017-01-23T05:06:59.328Z,1020.57
2017-01-23T05:07:39.868Z,1020.53
2017-01-23T05:08:20.379Z,1020.56
2017-01-23T05:09:00.893Z,1020.6
2017-01-23T05:09:41.416Z,1020.6
2017-01-23T05:10:21.936Z,1020.6
2017-01-23T05:11:02.475Z,1020.59
2017-01-23T05:11:42.993Z,1020.62
2017-01-23T05:12:23.529Z,1020.64
2017-01-23T05:13:04.059Z,1020.61
2017-01-23T05:13:44.589Z,1020.59
2017-01-23T05:14:25.116Z,1020.64
2017-01-23T05:15:05.646Z,1020.58
2017-01-23T05:15:46.178Z,1020.56
2017-01-23T05:16:26.681Z,1020.58
2017-01-23T05:17:07.202Z,1020.57
2017-01-23T05:17:47.735Z,1020.57
2017-01-23T05:18:28.270Z,1020.56
2017-01-23T05:19:08.792Z,1020.58
2017-01-23T05:19:49.323Z,1020.58
2017-01-23T05:20:29.856Z,1020.58
2017-01-23T05:21:10.382Z,1020.51
2017-01-23T05:21:50.895Z,1020.53
2017-01-23T05:22:31.426Z,1020.55
2017-01-23T05:23:11.957Z,1020.56
2017-01-23T05:23:52.465Z,1020.55
2017-01-23T05:24:32.997Z,1020.61
2017-01-23T05:25:13.528Z,1020.61
2017-01-23T05:25:54.056Z,1020.64
2017-01-23T05:26:34.585Z,1020.59
2017-01-23T05:27:15.113Z,1020.62
2017-01-23T05:27:55.645Z,1020.57
2017-01-23T05:28:36.177Z,1020.6
2017-01-23T05:29:16.705Z,1020.61
2017-01-23T05:29:57.212Z,1020.62
2017-01-23T05:30:37.738Z,1020.66
2017-01-23T05:31:18.275Z,1020.65
2017-01-23T05:31:58.859Z,1020.66
2017-01-23T05:32:39.463Z,1020.67
2017-01-23T05:33:19.997Z,1020.64
2017-01-23T05:34:00.504Z,1020.67
2017-01-23T05:34:41.039Z,1020.63
2017-01-23T05:35:21.583Z,1020.65
2017-01-23T05:36:02.113Z,1020.66
2017-01-23T05:36:42.642Z,1020.66
2017-01-23T05:37:23.167Z,1020.64
2017-01-23T05:38:03.693Z,1020.67
2017-01-23T05:38:44.223Z,1020.67
2017-01-23T05:39:24.753Z,1020.66
2017-01-23T05:40:05.281Z,1020.7
2017-01-23T05:40:45.805Z,1020.72
2017-01-23T05:41:26.334Z,1020.74
2017-01-23T05:42:06.863Z,1020.76
2017-01-23T05:42:47.382Z,1020.75
2017-01-23T05:43:27.897Z,1020.75
2017-01-23T05:44:08.425Z,1020.72
2017-01-23T05:44:48.952Z,1020.7
2017-01-23T05:45:29.475Z,1020.72
2017-01-23T05:46:10.000Z,1020.69
2017-01-23T05:46:50.536Z,1020.66
2017-01-23T05:47:31.065Z,1020.67
2017-01-23T05:48:11.586Z,1020.65
2017-01-23T05:48:52.110Z,1020.67
2017-01-23T05:49:32.638Z,1020.65
2017-01-23T05:50:13.173Z,1020.69
2017-01-23T05:50:53.683Z,1020.71
2017-01-23T05:51:34.215Z,1020.71
2017-01-23T05:52:14.739Z,1020.67
2017-01-23T05:52:55.252Z,1020.71
2017-01-23T05:53:35.790Z,1020.7
2017-01-23T05:54:16.310Z,1020.73
2017-01-23T05:54:56.841Z,1020.75
2017-01-23T05:55:37.374Z,1020.74
2017-01-23T05:56:17.887Z,1020.78
2017-01-23T05:56:58.427Z,1020.73
2017-01-23T05:57:38.956Z,1020.75
2017-01-23T05:58:19.480Z,1020.73
2017-01-23T05:59:00.003Z,1020.76
2017-01-23T05:59:40.524Z,1020.76
2017-01-23T06:00:21.065Z,1020.74
2017-01-23T06:01:01.591Z,1020.77
2017-01-23T06:01:42.127Z,1020.77
2017-01-23T06:02:22.657Z,1020.76
2017-01-23T06:03:03.184Z,1020.77
2017-01-23T06:03:43.707Z,1020.79
2017-01-23T06:04:24.220Z,1020.72
2017-01-23T06:05:04.741Z,1020.75
2017-01-23T06:05:45.267Z,1020.77
2017-01-23T06:06:25.799Z,1020.8
2017-01-23T06:07:06.331Z,1020.84
2017-01-23T06:07:46.855Z,1020.8
2017-01-23T06:08:27.380Z,1020.8
2017-01-23T06:09:07.908Z,1020.85
2017-01-23T06:09:48.434Z,1020.85
2017-01-23T06:10:28.970Z,1020.87
2017-01-23T06:11:09.493Z,1020.93
2017-01-23T06:11:50.022Z,1020.9
2017-01-23T06:12:30.551Z,1020.88
2017-01-23T06:13:11.081Z,1020.92
2017-01-23T06:13:51.607Z,1020.9
2017-01-23T06:14:32.126Z,1020.92
2017-01-23T06:15:12.660Z,1020.95
2017-01-23T06:15:53.188Z,1020.99
2017-01-23T06:16:33.717Z,1020.97
2017-01-23T06:17:14.242Z,1020.97
2017-01-23T06:17:54.821Z,1021.02
2017-01-23T06:18:35.342Z,1020.98
2017-01-23T06:19:15.873Z,1021.01
2017-01-23T06:19:56.401Z,1021.04
2017-01-23T06:20:37.002Z,1021.03
2017-01-23T06:21:17.452Z,1021.07
2017-01-23T06:21:57.978Z,1021.08
2017-01-23T06:22:38.508Z,1021.06
2017-01-23T06:23:19.038Z,1021.05
2017-01-23T06:23:59.561Z,1021.07
2017-01-23T06:24:40.093Z,1021.05
2017-01-23T06:25:20.617Z,1021.04
2017-01-23T06:26:01.147Z,1021.08
2017-01-23T06:26:41.681Z,1021.03
2017-01-23T06:27:22.201Z,1021.04
2017-01-23T06:28:02.747Z,1021.03
2017-01-23T06:28:43.268Z,1021.05
2017-01-23T06:29:23.805Z,1021.08
2017-01-23T06:30:04.324Z,1021.02
2017-01-23T06:30:44.850Z,1021.07
2017-01-23T06:31:25.387Z,1021.08
2017-01-23T06:32:05.996Z,1021.08
2017-01-23T06:32:46.445Z,1021.06
2017-01-23T06:33:26.974Z,1021.08
2017-01-23T06:34:07.489Z,1021.09
2017-01-23T06:34:48.011Z,1021.04
2017-01-23T06:35:28.531Z,1021.06
2017-01-23T06:36:09.087Z,1021.06
2017-01-23T06:36:49.628Z,1021.07
2017-01-23T06:37:30.153Z,1021.08
2017-01-23T06:38:10.682Z,1021.03
2017-01-23T06:38:51.203Z,1021.02
2017-01-23T06:39:31.730Z,1021.04
2017-01-23T06:40:12.255Z,1021.04
2017-01-23T06:40:52.782Z,1020.99
2017-01-23T06:41:33.313Z,1021
2017-01-23T06:42:13.842Z,1021
2017-01-23T06:42:54.364Z,1020.98
2017-01-23T06:43:34.886Z,1020.97
2017-01-23T06:44:15.419Z,1021.02
2017-01-23T06:44:55.944Z,1021.02
2017-01-23T06:45:36.479Z,1021.02
2017-01-23T06:46:17.009Z,1020.99
2017-01-23T06:46:57.536Z,1021.03
2017-01-23T06:47:38.067Z,1021.02
2017-01-23T06:48:18.598Z,1021.01
2017-01-23T06:48:59.126Z,1021.03
2017-01-23T06:49:39.656Z,1021.05
2017-01-23T06:50:20.229Z,1021.06
2017-01-23T06:51:00.755Z,1021.03
2017-01-23T06:51:41.275Z,1021.07
2017-01-23T06:52:21.810Z,1021.08
2017-01-23T06:53:02.337Z,1021.13
2017-01-23T06:53:42.865Z,1021.11
2017-01-23T06:54:23.410Z,1021.07
2017-01-23T06:55:03.933Z,1021.1
2017-01-23T06:55:44.465Z,1021.11
2017-01-23T06:56:25.005Z,1021.14
2017-01-23T06:57:05.533Z,1021.11
2017-01-23T06:57:46.059Z,1021.15
2017-01-23T06:58:26.584Z,1021.14
2017-01-23T06:59:07.114Z,1021.17
2017-01-23T06:59:47.650Z,1021.19
2017-01-23T07:00:28.169Z,1021.2
2017-01-23T07:01:08.697Z,1021.19
2017-01-23T07:01:49.237Z,1021.15
2017-01-23T07:02:29.765Z,1021.15
2017-01-23T07:03:10.295Z,1021.13
2017-01-23T07:03:50.816Z,1021.13
2017-01-23T07:04:31.346Z,1021.09
2017-01-23T07:05:11.933Z,1021.11
2017-01-23T07:05:52.380Z,1021.1
2017-01-23T07:06:32.914Z,1021.11
2017-01-23T07:07:13.434Z,1021.08
2017-01-23T07:07:53.964Z,1021.01
2017-01-23T07:08:34.492Z,1021.08
2017-01-23T07:09:15.013Z,1021.05
2017-01-23T07:09:55.534Z,1021.04
2017-01-23T07:10:36.064Z,1021.06
2017-01-23T07:11:16.577Z,1021.02
2017-01-23T07:11:57.209Z,1021.04
2017-01-23T07:12:37.650Z,1021.03
2017-01-23T07:13:18.182Z,1021.03
2017-01-23T07:13:58.713Z,1021.03
2017-01-23T07:14:39.231Z,1021.06
2017-01-23T07:15:19.753Z,1021.06
2017-01-23T07:16:00.279Z,1021.02
2017-01-23T07:16:40.815Z,1021.05
2017-01-23T07:17:21.374Z,1021.07
2017-01-23T07:18:01.917Z,1021.06
2017-01-23T07:20:16.457Z,1020.97
2017-01-23T07:20:56.980Z,1021
2017-01-23T07:21:37.514Z,1021.01
2017-01-23T07:22:18.045Z,1021.02
2017-01-23T07:22:58.567Z,1021.04
2017-01-23T07:23:39.086Z,1021.04
2017-01-23T07:24:19.623Z,1021
2017-01-23T07:25:00.142Z,1021.02
2017-01-23T07:25:40.668Z,1021.03
2017-01-23T07:26:21.200Z,1021.01
2017-01-23T07:27:01.725Z,1021.04
2017-01-23T07:27:42.251Z,1021.04
2017-01-23T07:28:22.779Z,1021.04
2017-01-23T07:29:03.307Z,1021.07
2017-01-23T07:29:43.828Z,1021.07
2017-01-23T07:30:24.352Z,1021.08
2017-01-23T07:31:04.878Z,1021.1
2017-01-23T07:31:45.406Z,1021.09
2017-01-23T07:32:25.930Z,1021.13
2017-01-23T07:33:06.455Z,1021.12
2017-01-23T07:33:47.007Z,1021.17
2017-01-23T07:34:27.506Z,1021.15
2017-01-23T07:35:08.072Z,1021.17
2017-01-23T07:35:48.590Z,1021.19
2017-01-23T07:36:29.118Z,1021.2
2017-01-23T07:37:09.649Z,1021.2
2017-01-23T07:37:50.177Z,1021.2
2017-01-23T07:38:30.715Z,1021.18
2017-01-23T07:39:11.238Z,1021.18
2017-01-23T07:39:51.768Z,1021.24
2017-01-23T07:40:32.296Z,1021.21
2017-01-23T07:41:12.829Z,1021.24
2017-01-23T07:41:53.365Z,1021.24
2017-01-23T07:42:33.875Z,1021.22
2017-01-23T07:43:14.402Z,1021.27
2017-01-23T07:43:54.933Z,1021.24
2017-01-23T07:44:35.490Z,1021.26
2017-01-23T07:45:15.990Z,1021.25
2017-01-23T07:45:56.523Z,1021.31
2017-01-23T07:46:37.046Z,1021.33
2017-01-23T07:47:17.583Z,1021.34
2017-01-23T07:47:58.101Z,1021.35
2017-01-23T07:48:38.637Z,1021.34
2017-01-23T07:49:19.163Z,1021.33
2017-01-23T07:49:59.694Z,1021.36
2017-01-23T07:50:40.214Z,1021.36
2017-01-23T07:51:20.742Z,1021.33
2017-01-23T07:52:01.268Z,1021.36
2017-01-23T07:52:41.788Z,1021.33
2017-01-23T07:53:22.323Z,1021.36
2017-01-23T07:54:02.842Z,1021.37
2017-01-23T07:54:43.366Z,1021.38
2017-01-23T07:55:23.895Z,1021.41
2017-01-23T07:56:04.426Z,1021.46
2017-01-23T07:56:44.986Z,1021.42
2017-01-23T07:57:25.521Z,1021.42
2017-01-23T07:58:06.046Z,1021.43
2017-01-23T07:58:46.571Z,1021.45
2017-01-23T07:59:27.100Z,1021.44
2017-01-23T08:00:07.635Z,1021.41
2017-01-23T08:00:48.172Z,1021.38
2017-01-23T08:01:28.683Z,1021.44
2017-01-23T08:02:09.212Z,1021.42
2017-01-23T08:02:49.742Z,1021.41
2017-01-23T08:03:30.269Z,1021.38
2017-01-23T08:04:10.800Z,1021.39
2017-01-23T08:04:51.330Z,1021.36
2017-01-23T08:05:31.859Z,1021.34
2017-01-23T08:06:12.391Z,1021.34
2017-01-23T08:06:52.922Z,1021.37
2017-01-23T08:07:33.447Z,1021.39
2017-01-23T08:08:13.974Z,1021.39
2017-01-23T08:08:54.521Z,1021.36
2017-01-23T08:09:35.073Z,1021.41
2017-01-23T08:10:15.581Z,1021.39
2017-01-23T08:10:56.095Z,1021.38
2017-01-23T08:11:36.625Z,1021.37
2017-01-23T08:12:17.154Z,1021.43
2017-01-23T08:12:57.677Z,1021.38
2017-01-23T08:13:38.203Z,1021.4
2017-01-23T08:14:18.726Z,1021.4
2017-01-23T08:14:59.256Z,1021.37
2017-01-23T08:15:39.781Z,1021.38
2017-01-23T08:16:20.304Z,1021.36
2017-01-23T08:17:00.822Z,1021.37
2017-01-23T08:17:41.342Z,1021.4
2017-01-23T08:18:21.876Z,1021.42
2017-01-23T08:19:02.401Z,1021.44
2017-01-23T08:19:42.932Z,1021.44
2017-01-23T08:20:23.457Z,1021.44
2017-01-23T08:21:04.006Z,1021.4
2017-01-23T08:21:44.507Z,1021.42
2017-01-23T08:22:25.032Z,1021.4
2017-01-23T08:23:05.563Z,1021.41
2017-01-23T08:23:46.089Z,1021.41
2017-01-23T08:24:26.621Z,1021.42
2017-01-23T08:25:07.142Z,1021.38
2017-01-23T08:25:47.676Z,1021.39
2017-01-23T08:26:28.200Z,1021.4
2017-01-23T08:27:08.719Z,1021.42
2017-01-23T08:27:49.244Z,1021.4
2017-01-23T08:28:29.769Z,1021.37
2017-01-23T08:29:10.298Z,1021.39
2017-01-23T08:29:50.814Z,1021.38
2017-01-23T08:30:31.330Z,1021.39
2017-01-23T08:31:11.856Z,1021.39
2017-01-23T08:31:52.382Z,1021.43
2017-01-23T08:32:32.941Z,1021.45
2017-01-23T08:33:13.445Z,1021.45
2017-01-23T08:33:53.964Z,1021.43
2017-01-23T08:34:34.486Z,1021.42
2017-01-23T08:35:15.010Z,1021.44
2017-01-23T08:35:55.535Z,1021.44
2017-01-23T08:36:36.057Z,1021.44
2017-01-23T08:37:16.585Z,1021.44
2017-01-23T08:37:57.101Z,1021.44
2017-01-23T08:38:37.639Z,1021.47
2017-01-23T08:39:18.172Z,1021.44
2017-01-23T08:39:58.695Z,1021.51
2017-01-23T08:40:39.212Z,1021.44
2017-01-23T08:41:19.729Z,1021.47
2017-01-23T08:42:00.269Z,1021.46
2017-01-23T08:42:40.789Z,1021.46
2017-01-23T08:43:21.315Z,1021.5
2017-01-23T08:44:01.840Z,1021.49
2017-01-23T08:44:42.370Z,1021.48
2017-01-23T08:45:22.893Z,1021.49
2017-01-23T08:46:03.418Z,1021.49
2017-01-23T08:46:43.939Z,1021.44
2017-01-23T08:47:24.465Z,1021.47
2017-01-23T08:48:04.995Z,1021.45
2017-01-23T08:48:45.521Z,1021.45
2017-01-23T08:49:26.051Z,1021.42
2017-01-23T08:50:06.570Z,1021.42
2017-01-23T08:50:47.096Z,1021.42
2017-01-23T08:51:27.615Z,1021.46